sensor_id;sensor_type;location;lat;lon;timestamp;P1;durP1;ratioP1;P2;durP2;ratioP2
10313;SDS011;5202;49.138;10.090;2023-08-12T00:01:41;3.85;;;2.58;;
10313;SDS011;5202;49.138;10.090;2023-08-12T00:04:10;3.78;;;2.78;;
10313;SDS011;5202;49.138;10.090;2023-08-12T00:06:41;3.25;;;2.85;;
10313;SDS011;5202;49.138;10.090;2023-08-12T00:09:11;2.72;;;2.53;;
10313;SDS011;5202;49.138;10.090;2023-08-12T00:11:41;3.20;;;2.65;;
10313;SDS011;5202;49.138;10.090;2023-08-12T00:14:10;4.53;;;2.53;;
10313;SDS011;5202;49.138;10.090;2023-08-12T00:16:38;2.95;;;2.47;;
10313;SDS011;5202;49.138;10.090;2023-08-12T00:19:06;5.75;;;2.97;;
10313;SDS011;5202;49.138;10.090;2023-08-12T00:21:35;3.15;;;2.85;;
10313;SDS011;5202;49.138;10.090;2023-08-12T00:24:04;5.32;;;2.95;;
10313;SDS011;5202;49.138;10.090;2023-08-12T00:26:35;3.55;;;2.70;;
10313;SDS011;5202;49.138;10.090;2023-08-12T00:29:03;5.28;;;3.05;;
10313;SDS011;5202;49.138;10.090;2023-08-12T00:31:32;2.92;;;2.60;;
10313;SDS011;5202;49.138;10.090;2023-08-12T00:34:00;2.88;;;2.55;;
10313;SDS011;5202;49.138;10.090;2023-08-12T00:36:29;3.10;;;2.80;;
10313;SDS011;5202;49.138;10.090;2023-08-12T00:38:57;3.03;;;2.65;;
10313;SDS011;5202;49.138;10.090;2023-08-12T00:41:26;2.70;;;2.50;;
10313;SDS011;5202;49.138;10.090;2023-08-12T00:43:56;3.83;;;3.00;;
10313;SDS011;5202;49.138;10.090;2023-08-12T00:46:24;4.28;;;3.55;;
10313;SDS011;5202;49.138;10.090;2023-08-12T00:48:52;4.15;;;2.92;;
10313;SDS011;5202;49.138;10.090;2023-08-12T00:51:22;8.10;;;3.20;;
10313;SDS011;5202;49.138;10.090;2023-08-12T00:53:50;6.45;;;3.35;;
10313;SDS011;5202;49.138;10.090;2023-08-12T00:56:20;4.63;;;3.03;;
10313;SDS011;5202;49.138;10.090;2023-08-12T00:58:49;4.38;;;3.20;;
10313;SDS011;5202;49.138;10.090;2023-08-12T01:01:19;5.15;;;3.55;;
10313;SDS011;5202;49.138;10.090;2023-08-12T01:03:48;5.95;;;3.10;;
10313;SDS011;5202;49.138;10.090;2023-08-12T01:06:17;4.15;;;3.33;;
10313;SDS011;5202;49.138;10.090;2023-08-12T01:08:47;3.05;;;2.65;;
10313;SDS011;5202;49.138;10.090;2023-08-12T01:11:18;8.70;;;3.20;;
10313;SDS011;5202;49.138;10.090;2023-08-12T01:13:54;3.08;;;2.67;;
10313;SDS011;5202;49.138;10.090;2023-08-12T01:16:30;4.07;;;2.75;;
10313;SDS011;5202;49.138;10.090;2023-08-12T01:19:02;4.28;;;2.90;;
10313;SDS011;5202;49.138;10.090;2023-08-12T01:21:34;3.20;;;2.90;;
10313;SDS011;5202;49.138;10.090;2023-08-12T01:24:10;3.88;;;2.63;;
10313;SDS011;5202;49.138;10.090;2023-08-12T01:26:39;7.82;;;3.05;;
10313;SDS011;5202;49.138;10.090;2023-08-12T01:29:07;4.53;;;2.70;;
10313;SDS011;5202;49.138;10.090;2023-08-12T01:31:37;3.03;;;2.53;;
10313;SDS011;5202;49.138;10.090;2023-08-12T01:34:16;5.18;;;2.92;;
10313;SDS011;5202;49.138;10.090;2023-08-12T01:36:51;2.83;;;2.60;;
10313;SDS011;5202;49.138;10.090;2023-08-12T01:39:24;3.15;;;2.85;;
10313;SDS011;5202;49.138;10.090;2023-08-12T01:41:54;5.47;;;3.30;;
10313;SDS011;5202;49.138;10.090;2023-08-12T01:44:23;4.55;;;3.30;;
10313;SDS011;5202;49.138;10.090;2023-08-12T01:46:52;3.00;;;2.70;;
10313;SDS011;5202;49.138;10.090;2023-08-12T01:49:22;4.57;;;3.20;;
10313;SDS011;5202;49.138;10.090;2023-08-12T01:51:51;4.30;;;3.10;;
10313;SDS011;5202;49.138;10.090;2023-08-12T01:54:22;6.15;;;3.25;;
10313;SDS011;5202;49.138;10.090;2023-08-12T01:56:52;3.20;;;2.90;;
10313;SDS011;5202;49.138;10.090;2023-08-12T01:59:23;10.25;;;3.30;;
10313;SDS011;5202;49.138;10.090;2023-08-12T02:01:51;3.65;;;3.05;;
10313;SDS011;5202;49.138;10.090;2023-08-12T02:04:20;3.35;;;2.97;;
10313;SDS011;5202;49.138;10.090;2023-08-12T02:06:59;3.90;;;3.05;;
10313;SDS011;5202;49.138;10.090;2023-08-12T02:09:29;5.70;;;3.72;;
10313;SDS011;5202;49.138;10.090;2023-08-12T02:11:58;3.40;;;2.92;;
10313;SDS011;5202;49.138;10.090;2023-08-12T02:14:26;5.47;;;3.25;;
10313;SDS011;5202;49.138;10.090;2023-08-12T02:16:54;7.60;;;3.22;;
10313;SDS011;5202;49.138;10.090;2023-08-12T02:19:24;5.60;;;3.22;;
10313;SDS011;5202;49.138;10.090;2023-08-12T02:21:52;3.30;;;3.00;;
10313;SDS011;5202;49.138;10.090;2023-08-12T02:24:20;3.67;;;2.78;;
10313;SDS011;5202;49.138;10.090;2023-08-12T02:26:50;3.35;;;2.90;;
10313;SDS011;5202;49.138;10.090;2023-08-12T02:29:19;5.68;;;2.97;;
10313;SDS011;5202;49.138;10.090;2023-08-12T02:31:47;4.70;;;2.97;;
10313;SDS011;5202;49.138;10.090;2023-08-12T02:34:19;5.70;;;3.40;;
10313;SDS011;5202;49.138;10.090;2023-08-12T02:36:47;6.30;;;3.05;;
10313;SDS011;5202;49.138;10.090;2023-08-12T02:39:17;4.80;;;3.33;;
10313;SDS011;5202;49.138;10.090;2023-08-12T02:41:45;5.20;;;3.28;;
10313;SDS011;5202;49.138;10.090;2023-08-12T02:44:15;4.45;;;2.92;;
10313;SDS011;5202;49.138;10.090;2023-08-12T02:46:43;5.22;;;3.20;;
10313;SDS011;5202;49.138;10.090;2023-08-12T02:49:12;3.22;;;2.80;;
10313;SDS011;5202;49.138;10.090;2023-08-12T02:51:41;4.15;;;3.00;;
10313;SDS011;5202;49.138;10.090;2023-08-12T02:54:09;3.42;;;2.85;;
10313;SDS011;5202;49.138;10.090;2023-08-12T02:56:37;5.32;;;3.70;;
10313;SDS011;5202;49.138;10.090;2023-08-12T02:59:06;4.65;;;3.38;;
10313;SDS011;5202;49.138;10.090;2023-08-12T03:01:36;3.45;;;3.10;;
10313;SDS011;5202;49.138;10.090;2023-08-12T03:04:05;3.30;;;3.00;;
10313;SDS011;5202;49.138;10.090;2023-08-12T03:06:33;3.80;;;3.40;;
10313;SDS011;5202;49.138;10.090;2023-08-12T03:09:02;5.90;;;3.47;;
10313;SDS011;5202;49.138;10.090;2023-08-12T03:11:31;5.18;;;3.25;;
10313;SDS011;5202;49.138;10.090;2023-08-12T03:14:01;4.93;;;3.30;;
10313;SDS011;5202;49.138;10.090;2023-08-12T03:16:30;3.95;;;3.28;;
10313;SDS011;5202;49.138;10.090;2023-08-12T03:18:59;3.45;;;2.85;;
10313;SDS011;5202;49.138;10.090;2023-08-12T03:21:28;6.15;;;2.95;;
10313;SDS011;5202;49.138;10.090;2023-08-12T03:23:57;3.00;;;2.55;;
10313;SDS011;5202;49.138;10.090;2023-08-12T03:26:26;4.63;;;3.50;;
10313;SDS011;5202;49.138;10.090;2023-08-12T03:28:56;2.90;;;2.67;;
10313;SDS011;5202;49.138;10.090;2023-08-12T03:31:26;3.63;;;2.80;;
10313;SDS011;5202;49.138;10.090;2023-08-12T03:33:53;4.47;;;3.05;;
10313;SDS011;5202;49.138;10.090;2023-08-12T03:36:23;4.50;;;2.78;;
10313;SDS011;5202;49.138;10.090;2023-08-12T03:38:52;4.15;;;3.28;;
10313;SDS011;5202;49.138;10.090;2023-08-12T03:41:24;4.22;;;3.35;;
10313;SDS011;5202;49.138;10.090;2023-08-12T03:43:56;6.60;;;3.05;;
10313;SDS011;5202;49.138;10.090;2023-08-12T03:46:25;3.25;;;2.90;;
10313;SDS011;5202;49.138;10.090;2023-08-12T03:48:55;4.25;;;3.10;;
10313;SDS011;5202;49.138;10.090;2023-08-12T03:51:24;7.55;;;3.63;;
10313;SDS011;5202;49.138;10.090;2023-08-12T03:53:54;4.68;;;3.13;;
10313;SDS011;5202;49.138;10.090;2023-08-12T03:56:23;7.07;;;3.40;;
10313;SDS011;5202;49.138;10.090;2023-08-12T03:58:52;7.85;;;3.10;;
10313;SDS011;5202;49.138;10.090;2023-08-12T04:01:21;6.07;;;3.15;;
10313;SDS011;5202;49.138;10.090;2023-08-12T04:03:57;4.00;;;3.60;;
10313;SDS011;5202;49.138;10.090;2023-08-12T04:06:32;4.65;;;3.40;;
10313;SDS011;5202;49.138;10.090;2023-08-12T04:09:02;5.03;;;3.45;;
10313;SDS011;5202;49.138;10.090;2023-08-12T04:11:30;9.23;;;3.80;;
10313;SDS011;5202;49.138;10.090;2023-08-12T04:13:58;4.18;;;3.45;;
10313;SDS011;5202;49.138;10.090;2023-08-12T04:16:27;3.90;;;3.47;;
10313;SDS011;5202;49.138;10.090;2023-08-12T04:18:55;3.90;;;3.55;;
10313;SDS011;5202;49.138;10.090;2023-08-12T04:21:24;4.68;;;4.07;;
10313;SDS011;5202;49.138;10.090;2023-08-12T04:23:54;5.78;;;4.10;;
10313;SDS011;5202;49.138;10.090;2023-08-12T04:26:22;7.05;;;3.90;;
10313;SDS011;5202;49.138;10.090;2023-08-12T04:28:52;6.95;;;4.00;;
10313;SDS011;5202;49.138;10.090;2023-08-12T04:31:20;4.57;;;3.80;;
10313;SDS011;5202;49.138;10.090;2023-08-12T04:33:49;3.88;;;3.50;;
10313;SDS011;5202;49.138;10.090;2023-08-12T04:36:22;6.95;;;3.08;;
10313;SDS011;5202;49.138;10.090;2023-08-12T04:38:51;3.78;;;3.45;;
10313;SDS011;5202;49.138;10.090;2023-08-12T04:41:21;5.03;;;3.75;;
10313;SDS011;5202;49.138;10.090;2023-08-12T04:43:52;3.88;;;3.47;;
10313;SDS011;5202;49.138;10.090;2023-08-12T04:46:25;7.80;;;3.80;;
10313;SDS011;5202;49.138;10.090;2023-08-12T04:48:53;5.13;;;3.65;;
10313;SDS011;5202;49.138;10.090;2023-08-12T04:51:22;4.20;;;3.80;;
10313;SDS011;5202;49.138;10.090;2023-08-12T04:53:51;4.82;;;3.50;;
10313;SDS011;5202;49.138;10.090;2023-08-12T04:56:21;4.95;;;3.28;;
10313;SDS011;5202;49.138;10.090;2023-08-12T04:58:52;3.65;;;3.33;;
10313;SDS011;5202;49.138;10.090;2023-08-12T05:01:20;5.32;;;3.75;;
10313;SDS011;5202;49.138;10.090;2023-08-12T05:03:50;3.40;;;3.10;;
10313;SDS011;5202;49.138;10.090;2023-08-12T05:06:18;4.20;;;3.80;;
10313;SDS011;5202;49.138;10.090;2023-08-12T05:08:47;4.60;;;3.38;;
10313;SDS011;5202;49.138;10.090;2023-08-12T05:11:16;4.88;;;3.67;;
10313;SDS011;5202;49.138;10.090;2023-08-12T05:13:46;4.53;;;3.75;;
10313;SDS011;5202;49.138;10.090;2023-08-12T05:16:15;4.57;;;3.72;;
10313;SDS011;5202;49.138;10.090;2023-08-12T05:18:43;4.30;;;3.90;;
10313;SDS011;5202;49.138;10.090;2023-08-12T05:21:12;8.25;;;4.30;;
10313;SDS011;5202;49.138;10.090;2023-08-12T05:23:41;4.93;;;4.10;;
10313;SDS011;5202;49.138;10.090;2023-08-12T05:26:09;6.05;;;4.22;;
10313;SDS011;5202;49.138;10.090;2023-08-12T05:28:38;6.20;;;4.45;;
10313;SDS011;5202;49.138;10.090;2023-08-12T05:31:08;6.60;;;3.92;;
10313;SDS011;5202;49.138;10.090;2023-08-12T05:33:36;7.07;;;4.05;;
10313;SDS011;5202;49.138;10.090;2023-08-12T05:36:04;5.95;;;4.22;;
10313;SDS011;5202;49.138;10.090;2023-08-12T05:38:33;4.50;;;4.10;;
10313;SDS011;5202;49.138;10.090;2023-08-12T05:41:01;5.35;;;3.95;;
10313;SDS011;5202;49.138;10.090;2023-08-12T05:43:33;6.25;;;4.15;;
10313;SDS011;5202;49.138;10.090;2023-08-12T05:46:02;5.70;;;4.25;;
10313;SDS011;5202;49.138;10.090;2023-08-12T05:48:32;4.80;;;4.07;;
10313;SDS011;5202;49.138;10.090;2023-08-12T05:51:00;4.20;;;3.80;;
10313;SDS011;5202;49.138;10.090;2023-08-12T05:53:29;5.53;;;3.97;;
10313;SDS011;5202;49.138;10.090;2023-08-12T05:55:57;5.65;;;4.10;;
10313;SDS011;5202;49.138;10.090;2023-08-12T05:58:25;5.68;;;4.60;;
10313;SDS011;5202;49.138;10.090;2023-08-12T06:00:54;6.82;;;4.38;;
10313;SDS011;5202;49.138;10.090;2023-08-12T06:03:22;4.80;;;4.05;;
10313;SDS011;5202;49.138;10.090;2023-08-12T06:05:52;5.05;;;4.53;;
10313;SDS011;5202;49.138;10.090;2023-08-12T06:08:21;5.47;;;4.13;;
10313;SDS011;5202;49.138;10.090;2023-08-12T06:10:49;4.53;;;4.10;;
10313;SDS011;5202;49.138;10.090;2023-08-12T06:13:17;6.95;;;3.78;;
10313;SDS011;5202;49.138;10.090;2023-08-12T06:15:46;8.90;;;4.43;;
10313;SDS011;5202;49.138;10.090;2023-08-12T06:18:15;5.28;;;4.18;;
10313;SDS011;5202;49.138;10.090;2023-08-12T06:20:43;6.10;;;4.15;;
10313;SDS011;5202;49.138;10.090;2023-08-12T06:23:13;6.85;;;4.30;;
10313;SDS011;5202;49.138;10.090;2023-08-12T06:25:43;10.18;;;4.63;;
10313;SDS011;5202;49.138;10.090;2023-08-12T06:28:11;7.13;;;4.00;;
10313;SDS011;5202;49.138;10.090;2023-08-12T06:30:40;4.18;;;3.78;;
10313;SDS011;5202;49.138;10.090;2023-08-12T06:33:12;5.03;;;4.60;;
10313;SDS011;5202;49.138;10.090;2023-08-12T06:35:41;4.80;;;3.63;;
10313;SDS011;5202;49.138;10.090;2023-08-12T06:38:09;5.43;;;4.10;;
10313;SDS011;5202;49.138;10.090;2023-08-12T06:40:39;4.40;;;4.00;;
10313;SDS011;5202;49.138;10.090;2023-08-12T06:43:08;6.95;;;3.95;;
10313;SDS011;5202;49.138;10.090;2023-08-12T06:45:37;5.90;;;3.53;;
10313;SDS011;5202;49.138;10.090;2023-08-12T06:48:05;4.43;;;3.75;;
10313;SDS011;5202;49.138;10.090;2023-08-12T06:50:34;4.72;;;4.03;;
10313;SDS011;5202;49.138;10.090;2023-08-12T06:53:02;6.13;;;4.13;;
10313;SDS011;5202;49.138;10.090;2023-08-12T06:55:31;4.88;;;4.22;;
10313;SDS011;5202;49.138;10.090;2023-08-12T06:58:01;5.95;;;4.18;;
10313;SDS011;5202;49.138;10.090;2023-08-12T07:00:29;5.32;;;3.92;;
10313;SDS011;5202;49.138;10.090;2023-08-12T07:02:57;6.53;;;3.92;;
10313;SDS011;5202;49.138;10.090;2023-08-12T07:05:26;4.80;;;4.20;;
10313;SDS011;5202;49.138;10.090;2023-08-12T07:07:54;4.35;;;3.65;;
10313;SDS011;5202;49.138;10.090;2023-08-12T07:10:23;8.55;;;4.25;;
10313;SDS011;5202;49.138;10.090;2023-08-12T07:12:55;5.50;;;4.63;;
10313;SDS011;5202;49.138;10.090;2023-08-12T07:15:25;5.63;;;3.92;;
10313;SDS011;5202;49.138;10.090;2023-08-12T07:17:53;4.15;;;3.75;;
10313;SDS011;5202;49.138;10.090;2023-08-12T07:20:22;4.13;;;3.72;;
10313;SDS011;5202;49.138;10.090;2023-08-12T07:22:50;4.63;;;3.55;;
10313;SDS011;5202;49.138;10.090;2023-08-12T07:25:19;6.38;;;3.78;;
10313;SDS011;5202;49.138;10.090;2023-08-12T07:27:47;3.80;;;3.50;;
10313;SDS011;5202;49.138;10.090;2023-08-12T07:30:16;5.72;;;3.80;;
10313;SDS011;5202;49.138;10.090;2023-08-12T07:32:46;5.60;;;4.03;;
10313;SDS011;5202;49.138;10.090;2023-08-12T07:35:14;3.88;;;3.40;;
10313;SDS011;5202;49.138;10.090;2023-08-12T07:37:43;4.38;;;3.88;;
10313;SDS011;5202;49.138;10.090;2023-08-12T07:40:11;3.78;;;3.47;;
10313;SDS011;5202;49.138;10.090;2023-08-12T07:42:40;6.22;;;3.53;;
10313;SDS011;5202;49.138;10.090;2023-08-12T07:45:08;4.13;;;3.55;;
10313;SDS011;5202;49.138;10.090;2023-08-12T07:47:37;4.10;;;3.53;;
10313;SDS011;5202;49.138;10.090;2023-08-12T07:50:07;3.63;;;3.33;;
10313;SDS011;5202;49.138;10.090;2023-08-12T07:52:37;6.38;;;3.75;;
10313;SDS011;5202;49.138;10.090;2023-08-12T07:55:06;4.78;;;3.70;;
10313;SDS011;5202;49.138;10.090;2023-08-12T07:57:35;4.45;;;3.90;;
10313;SDS011;5202;49.138;10.090;2023-08-12T08:00:04;4.10;;;3.65;;
10313;SDS011;5202;49.138;10.090;2023-08-12T08:02:35;6.43;;;4.00;;
10313;SDS011;5202;49.138;10.090;2023-08-12T08:05:04;4.05;;;3.15;;
10313;SDS011;5202;49.138;10.090;2023-08-12T08:07:35;4.03;;;3.47;;
10313;SDS011;5202;49.138;10.090;2023-08-12T08:10:04;5.13;;;4.40;;
10313;SDS011;5202;49.138;10.090;2023-08-12T08:12:33;6.70;;;3.60;;
10313;SDS011;5202;49.138;10.090;2023-08-12T08:15:02;5.88;;;3.30;;
10313;SDS011;5202;49.138;10.090;2023-08-12T08:17:31;6.53;;;3.67;;
10313;SDS011;5202;49.138;10.090;2023-08-12T08:20:05;4.03;;;3.63;;
10313;SDS011;5202;49.138;10.090;2023-08-12T08:22:36;6.75;;;3.40;;
10313;SDS011;5202;49.138;10.090;2023-08-12T08:25:06;6.47;;;4.07;;
10313;SDS011;5202;49.138;10.090;2023-08-12T08:27:35;5.25;;;3.55;;
10313;SDS011;5202;49.138;10.090;2023-08-12T08:30:04;4.32;;;3.70;;
10313;SDS011;5202;49.138;10.090;2023-08-12T08:32:35;3.90;;;3.60;;
10313;SDS011;5202;49.138;10.090;2023-08-12T08:35:04;4.70;;;3.42;;
10313;SDS011;5202;49.138;10.090;2023-08-12T08:37:33;4.03;;;3.60;;
10313;SDS011;5202;49.138;10.090;2023-08-12T08:40:03;4.97;;;3.85;;
10313;SDS011;5202;49.138;10.090;2023-08-12T08:42:34;4.30;;;3.58;;
10313;SDS011;5202;49.138;10.090;2023-08-12T08:45:05;5.68;;;4.05;;
10313;SDS011;5202;49.138;10.090;2023-08-12T08:47:41;5.30;;;4.35;;
10313;SDS011;5202;49.138;10.090;2023-08-12T08:50:10;5.45;;;3.78;;
10313;SDS011;5202;49.138;10.090;2023-08-12T08:52:39;5.13;;;3.53;;
10313;SDS011;5202;49.138;10.090;2023-08-12T08:55:11;5.72;;;3.72;;
10313;SDS011;5202;49.138;10.090;2023-08-12T08:57:40;3.58;;;3.28;;
10313;SDS011;5202;49.138;10.090;2023-08-12T09:00:14;3.85;;;3.53;;
10313;SDS011;5202;49.138;10.090;2023-08-12T09:02:44;5.13;;;3.90;;
10313;SDS011;5202;49.138;10.090;2023-08-12T09:05:14;4.20;;;3.78;;
10313;SDS011;5202;49.138;10.090;2023-08-12T09:07:44;4.90;;;3.78;;
10313;SDS011;5202;49.138;10.090;2023-08-12T09:10:14;6.13;;;3.80;;
10313;SDS011;5202;49.138;10.090;2023-08-12T09:12:45;6.30;;;3.88;;
10313;SDS011;5202;49.138;10.090;2023-08-12T09:15:15;5.50;;;3.88;;
10313;SDS011;5202;49.138;10.090;2023-08-12T09:17:45;5.63;;;3.58;;
10313;SDS011;5202;49.138;10.090;2023-08-12T09:20:13;4.55;;;3.58;;
10313;SDS011;5202;49.138;10.090;2023-08-12T09:22:42;4.00;;;3.60;;
10313;SDS011;5202;49.138;10.090;2023-08-12T09:25:11;4.10;;;3.50;;
10313;SDS011;5202;49.138;10.090;2023-08-12T09:27:41;4.43;;;3.35;;
10313;SDS011;5202;49.138;10.090;2023-08-12T09:30:09;4.22;;;3.55;;
10313;SDS011;5202;49.138;10.090;2023-08-12T09:32:39;4.60;;;3.47;;
10313;SDS011;5202;49.138;10.090;2023-08-12T09:35:14;5.00;;;3.38;;
10313;SDS011;5202;49.138;10.090;2023-08-12T09:37:44;4.15;;;3.75;;
10313;SDS011;5202;49.138;10.090;2023-08-12T09:40:12;4.97;;;3.42;;
10313;SDS011;5202;49.138;10.090;2023-08-12T09:42:45;4.97;;;3.60;;
10313;SDS011;5202;49.138;10.090;2023-08-12T09:45:14;5.32;;;3.22;;
10313;SDS011;5202;49.138;10.090;2023-08-12T09:47:43;7.65;;;3.47;;
10313;SDS011;5202;49.138;10.090;2023-08-12T09:50:11;4.03;;;3.03;;
10313;SDS011;5202;49.138;10.090;2023-08-12T09:52:40;4.10;;;3.22;;
10313;SDS011;5202;49.138;10.090;2023-08-12T09:55:09;3.17;;;2.88;;
10313;SDS011;5202;49.138;10.090;2023-08-12T09:57:41;4.25;;;2.88;;
10313;SDS011;5202;49.138;10.090;2023-08-12T10:00:13;4.72;;;2.85;;
10313;SDS011;5202;49.138;10.090;2023-08-12T10:02:45;3.78;;;3.20;;
10313;SDS011;5202;49.138;10.090;2023-08-12T10:05:19;4.85;;;2.70;;
10313;SDS011;5202;49.138;10.090;2023-08-12T10:07:54;7.30;;;3.30;;
10313;SDS011;5202;49.138;10.090;2023-08-12T10:10:23;4.70;;;3.13;;
10313;SDS011;5202;49.138;10.090;2023-08-12T10:12:52;3.47;;;3.17;;
10313;SDS011;5202;49.138;10.090;2023-08-12T10:15:23;4.72;;;3.17;;
10313;SDS011;5202;49.138;10.090;2023-08-12T10:17:52;4.43;;;3.22;;
10313;SDS011;5202;49.138;10.090;2023-08-12T10:20:23;4.05;;;2.72;;
10313;SDS011;5202;49.138;10.090;2023-08-12T10:22:53;5.68;;;2.72;;
10313;SDS011;5202;49.138;10.090;2023-08-12T10:25:23;4.00;;;2.55;;
10313;SDS011;5202;49.138;10.090;2023-08-12T10:27:59;3.20;;;2.90;;
10313;SDS011;5202;49.138;10.090;2023-08-12T10:30:29;3.88;;;2.72;;
10313;SDS011;5202;49.138;10.090;2023-08-12T10:32:58;3.25;;;2.95;;
10313;SDS011;5202;49.138;10.090;2023-08-12T10:35:40;3.28;;;2.83;;
10313;SDS011;5202;49.138;10.090;2023-08-12T10:38:11;4.10;;;2.55;;
10313;SDS011;5202;49.138;10.090;2023-08-12T10:40:45;4.00;;;2.97;;
10313;SDS011;5202;49.138;10.090;2023-08-12T10:43:14;4.90;;;3.13;;
10313;SDS011;5202;49.138;10.090;2023-08-12T10:45:46;6.97;;;3.20;;
10313;SDS011;5202;49.138;10.090;2023-08-12T10:48:17;4.53;;;3.20;;
10313;SDS011;5202;49.138;10.090;2023-08-12T10:50:52;5.00;;;3.17;;
10313;SDS011;5202;49.138;10.090;2023-08-12T10:53:23;3.40;;;3.10;;
10313;SDS011;5202;49.138;10.090;2023-08-12T10:55:56;4.00;;;3.28;;
10313;SDS011;5202;49.138;10.090;2023-08-12T10:58:29;4.70;;;3.38;;
10313;SDS011;5202;49.138;10.090;2023-08-12T11:01:02;3.10;;;2.80;;
10313;SDS011;5202;49.138;10.090;2023-08-12T11:03:41;3.20;;;2.90;;
10313;SDS011;5202;49.138;10.090;2023-08-12T11:06:14;6.18;;;2.90;;
10313;SDS011;5202;49.138;10.090;2023-08-12T11:08:45;4.55;;;2.88;;
10313;SDS011;5202;49.138;10.090;2023-08-12T11:11:18;2.95;;;2.75;;
10313;SDS011;5202;49.138;10.090;2023-08-12T11:13:52;6.38;;;3.10;;
10313;SDS011;5202;49.138;10.090;2023-08-12T11:16:34;5.07;;;2.70;;
10313;SDS011;5202;49.138;10.090;2023-08-12T11:19:04;3.63;;;2.90;;
10313;SDS011;5202;49.138;10.090;2023-08-12T11:21:35;3.28;;;2.83;;
10313;SDS011;5202;49.138;10.090;2023-08-12T11:24:04;3.88;;;2.55;;
10313;SDS011;5202;49.138;10.090;2023-08-12T11:26:33;7.60;;;2.97;;
10313;SDS011;5202;49.138;10.090;2023-08-12T11:29:04;5.70;;;3.20;;
10313;SDS011;5202;49.138;10.090;2023-08-12T11:31:38;3.25;;;2.67;;
10313;SDS011;5202;49.138;10.090;2023-08-12T11:34:07;4.43;;;2.67;;
10313;SDS011;5202;49.138;10.090;2023-08-12T11:36:36;2.63;;;2.40;;
10313;SDS011;5202;49.138;10.090;2023-08-12T11:39:04;4.22;;;2.70;;
10313;SDS011;5202;49.138;10.090;2023-08-12T11:41:33;3.28;;;2.20;;
10313;SDS011;5202;49.138;10.090;2023-08-12T11:44:02;2.78;;;2.53;;
10313;SDS011;5202;49.138;10.090;2023-08-12T11:46:32;3.20;;;2.90;;
10313;SDS011;5202;49.138;10.090;2023-08-12T11:49:02;5.82;;;2.45;;
10313;SDS011;5202;49.138;10.090;2023-08-12T11:51:30;2.45;;;2.25;;
10313;SDS011;5202;49.138;10.090;2023-08-12T11:53:59;2.75;;;2.47;;
10313;SDS011;5202;49.138;10.090;2023-08-12T11:56:28;3.63;;;2.33;;
10313;SDS011;5202;49.138;10.090;2023-08-12T11:58:57;2.63;;;2.40;;
10313;SDS011;5202;49.138;10.090;2023-08-12T12:01:25;2.40;;;2.17;;
10313;SDS011;5202;49.138;10.090;2023-08-12T12:04:02;4.22;;;2.60;;
10313;SDS011;5202;49.138;10.090;2023-08-12T12:06:41;3.85;;;2.50;;
10313;SDS011;5202;49.138;10.090;2023-08-12T12:09:11;3.58;;;2.53;;
10313;SDS011;5202;49.138;10.090;2023-08-12T12:11:41;4.68;;;2.53;;
10313;SDS011;5202;49.138;10.090;2023-08-12T12:14:09;2.90;;;2.42;;
10313;SDS011;5202;49.138;10.090;2023-08-12T12:16:39;3.85;;;2.60;;
10313;SDS011;5202;49.138;10.090;2023-08-12T12:19:12;2.20;;;2.00;;
10313;SDS011;5202;49.138;10.090;2023-08-12T12:21:46;3.10;;;2.80;;
10313;SDS011;5202;49.138;10.090;2023-08-12T12:24:16;3.60;;;2.47;;
10313;SDS011;5202;49.138;10.090;2023-08-12T12:26:49;4.97;;;2.80;;
10313;SDS011;5202;49.138;10.090;2023-08-12T12:29:17;4.05;;;2.97;;
10313;SDS011;5202;49.138;10.090;2023-08-12T12:31:45;4.95;;;2.75;;
10313;SDS011;5202;49.138;10.090;2023-08-12T12:34:15;2.40;;;2.20;;
10313;SDS011;5202;49.138;10.090;2023-08-12T12:36:44;4.18;;;2.55;;
10313;SDS011;5202;49.138;10.090;2023-08-12T12:39:13;3.90;;;2.72;;
10313;SDS011;5202;49.138;10.090;2023-08-12T12:41:41;3.28;;;2.53;;
10313;SDS011;5202;49.138;10.090;2023-08-12T12:44:13;3.55;;;2.40;;
10313;SDS011;5202;49.138;10.090;2023-08-12T12:46:42;3.97;;;2.67;;
10313;SDS011;5202;49.138;10.090;2023-08-12T12:49:11;4.05;;;2.72;;
10313;SDS011;5202;49.138;10.090;2023-08-12T12:51:40;3.78;;;2.33;;
10313;SDS011;5202;49.138;10.090;2023-08-12T12:54:09;3.90;;;2.42;;
10313;SDS011;5202;49.138;10.090;2023-08-12T12:56:37;4.72;;;2.72;;
10313;SDS011;5202;49.138;10.090;2023-08-12T12:59:06;5.40;;;3.00;;
10313;SDS011;5202;49.138;10.090;2023-08-12T13:01:34;2.83;;;2.33;;
10313;SDS011;5202;49.138;10.090;2023-08-12T13:04:03;3.75;;;2.60;;
10313;SDS011;5202;49.138;10.090;2023-08-12T13:06:31;5.20;;;2.90;;
10313;SDS011;5202;49.138;10.090;2023-08-12T13:09:01;4.53;;;2.72;;
10313;SDS011;5202;49.138;10.090;2023-08-12T13:11:31;3.00;;;2.70;;
10313;SDS011;5202;49.138;10.090;2023-08-12T13:14:00;3.63;;;2.90;;
10313;SDS011;5202;49.138;10.090;2023-08-12T13:16:29;5.30;;;3.38;;
10313;SDS011;5202;49.138;10.090;2023-08-12T13:18:58;4.03;;;2.63;;
10313;SDS011;5202;49.138;10.090;2023-08-12T13:21:26;3.63;;;2.80;;
10313;SDS011;5202;49.138;10.090;2023-08-12T13:23:55;4.07;;;2.75;;
10313;SDS011;5202;49.138;10.090;2023-08-12T13:26:25;3.65;;;3.28;;
10313;SDS011;5202;49.138;10.090;2023-08-12T13:28:53;4.18;;;3.15;;
10313;SDS011;5202;49.138;10.090;2023-08-12T13:31:22;6.05;;;3.97;;
10313;SDS011;5202;49.138;10.090;2023-08-12T13:33:51;7.75;;;4.63;;
10313;SDS011;5202;49.138;10.090;2023-08-12T13:36:20;7.45;;;4.60;;
10313;SDS011;5202;49.138;10.090;2023-08-12T13:38:48;7.15;;;5.25;;
10313;SDS011;5202;49.138;10.090;2023-08-12T13:41:17;8.55;;;4.90;;
10313;SDS011;5202;49.138;10.090;2023-08-12T13:43:47;8.10;;;4.90;;
10313;SDS011;5202;49.138;10.090;2023-08-12T13:46:15;7.95;;;5.80;;
10313;SDS011;5202;49.138;10.090;2023-08-12T13:48:43;8.07;;;5.80;;
10313;SDS011;5202;49.138;10.090;2023-08-12T13:51:12;6.60;;;5.30;;
10313;SDS011;5202;49.138;10.090;2023-08-12T13:53:41;8.20;;;5.57;;
10313;SDS011;5202;49.138;10.090;2023-08-12T13:56:09;7.45;;;5.55;;
10313;SDS011;5202;49.138;10.090;2023-08-12T13:58:38;8.02;;;5.35;;
10313;SDS011;5202;49.138;10.090;2023-08-12T14:01:07;8.13;;;5.05;;
10313;SDS011;5202;49.138;10.090;2023-08-12T14:03:36;6.35;;;5.20;;
10313;SDS011;5202;49.138;10.090;2023-08-12T14:06:05;7.55;;;5.70;;
10313;SDS011;5202;49.138;10.090;2023-08-12T14:08:33;6.45;;;5.35;;
10313;SDS011;5202;49.138;10.090;2023-08-12T14:11:02;5.72;;;5.03;;
10313;SDS011;5202;49.138;10.090;2023-08-12T14:13:30;7.10;;;5.13;;
10313;SDS011;5202;49.138;10.090;2023-08-12T14:15:59;5.85;;;5.25;;
10313;SDS011;5202;49.138;10.090;2023-08-12T14:18:29;9.10;;;6.53;;
10313;SDS011;5202;49.138;10.090;2023-08-12T14:20:57;8.02;;;5.63;;
10313;SDS011;5202;49.138;10.090;2023-08-12T14:23:26;7.20;;;5.22;;
10313;SDS011;5202;49.138;10.090;2023-08-12T14:25:54;6.03;;;4.70;;
10313;SDS011;5202;49.138;10.090;2023-08-12T14:28:22;6.22;;;5.00;;
10313;SDS011;5202;49.138;10.090;2023-08-12T14:30:51;5.30;;;4.80;;
10313;SDS011;5202;49.138;10.090;2023-08-12T14:33:21;7.22;;;5.50;;
10313;SDS011;5202;49.138;10.090;2023-08-12T14:35:53;7.28;;;5.68;;
10313;SDS011;5202;49.138;10.090;2023-08-12T14:38:22;8.65;;;5.40;;
10313;SDS011;5202;49.138;10.090;2023-08-12T14:40:51;6.88;;;5.45;;
10313;SDS011;5202;49.138;10.090;2023-08-12T14:43:19;5.72;;;5.07;;
10313;SDS011;5202;49.138;10.090;2023-08-12T14:45:47;6.38;;;5.00;;
10313;SDS011;5202;49.138;10.090;2023-08-12T14:48:16;6.25;;;5.57;;
10313;SDS011;5202;49.138;10.090;2023-08-12T14:50:44;6.68;;;5.75;;
10313;SDS011;5202;49.138;10.090;2023-08-12T14:53:14;5.75;;;5.05;;
10313;SDS011;5202;49.138;10.090;2023-08-12T14:55:43;7.82;;;5.82;;
10313;SDS011;5202;49.138;10.090;2023-08-12T14:58:14;8.52;;;5.80;;
10313;SDS011;5202;49.138;10.090;2023-08-12T15:00:43;5.93;;;5.32;;
10313;SDS011;5202;49.138;10.090;2023-08-12T15:03:11;8.30;;;5.60;;